createdAt,value
2017-12-21T00:00:13.953Z,87.58
2017-12-21T00:02:39.846Z,87.33
2017-12-21T00:05:09.550Z,87.68
2017-12-21T00:07:35.441Z,87.82
2017-12-21T00:10:02.782Z,87.59
2017-12-21T00:12:28.726Z,87.66
2017-12-21T00:14:57.713Z,87.70
2017-12-21T00:17:23.583Z,87.89
2017-12-21T00:19:53.368Z,87.85
2017-12-21T00:22:31.452Z,88.07
2017-12-21T00:24:57.291Z,87.99
2017-12-21T00:27:23.133Z,87.68
2017-12-21T00:29:49.060Z,87.33
2017-12-21T00:32:14.896Z,87.01
2017-12-21T00:34:40.753Z,86.82
2017-12-21T00:37:06.625Z,86.37
2017-12-21T00:39:32.534Z,86.44
2017-12-21T00:41:58.399Z,86.43
2017-12-21T00:44:24.274Z,86.44
2017-12-21T00:46:50.161Z,86.56
2017-12-21T00:49:16.043Z,86.46
2017-12-21T00:51:43.200Z,86.70
2017-12-21T00:54:09.036Z,86.75
2017-12-21T00:56:37.959Z,87.21
2017-12-21T00:59:03.830Z,87.64
2017-12-21T01:01:32.720Z,87.31
2017-12-21T01:03:58.624Z,87.23
2017-12-21T01:06:24.455Z,87.26
2017-12-21T01:08:50.368Z,87.31
2017-12-21T01:11:16.231Z,87.26
2017-12-21T01:13:43.796Z,87.45
2017-12-21T01:16:09.648Z,88.11
2017-12-21T01:18:38.199Z,88.25
2017-12-21T01:21:04.033Z,88.83
2017-12-21T01:26:00.888Z,88.91
2017-12-21T01:28:28.333Z,88.78
2017-12-21T01:30:54.182Z,88.76
2017-12-21T01:33:22.543Z,89.17
2017-12-21T01:35:48.447Z,89.31
2017-12-21T01:38:17.368Z,89.28
2017-12-21T01:40:43.294Z,89.23
2017-12-21T01:43:09.181Z,89.33
2017-12-21T01:45:35.074Z,89.26
2017-12-21T01:48:00.980Z,89.36
2017-12-21T01:50:30.685Z,89.34
2017-12-21T01:52:56.542Z,89.52
2017-12-21T01:55:24.284Z,89.41
2017-12-21T01:57:50.168Z,89.71
2017-12-21T02:00:19.958Z,89.66
2017-12-21T02:02:45.858Z,89.75
2017-12-21T02:05:13.490Z,89.67
2017-12-21T02:07:39.347Z,89.78
2017-12-21T02:10:08.974Z,89.79
2017-12-21T02:12:34.830Z,89.32
2017-12-21T02:15:03.020Z,89.37
2017-12-21T02:17:28.959Z,89.46
2017-12-21T02:19:54.879Z,89.74
2017-12-21T02:22:21.600Z,89.56
2017-12-21T02:24:47.444Z,89.14
2017-12-21T02:27:14.896Z,88.95
2017-12-21T02:29:40.755Z,88.79
2017-12-21T02:32:09.645Z,88.71
2017-12-21T02:34:35.486Z,88.77
2017-12-21T02:37:05.380Z,88.83
2017-12-21T02:39:31.271Z,89.14
2017-12-21T02:42:00.202Z,89.19
2017-12-21T02:44:26.049Z,89.24
2017-12-21T02:46:55.149Z,89.24
2017-12-21T02:49:21.054Z,88.98
2017-12-21T02:51:48.832Z,88.97
2017-12-21T02:54:14.765Z,89.09
2017-12-21T02:56:40.609Z,88.95
2017-12-21T02:59:06.490Z,88.29
2017-12-21T03:01:32.363Z,88.35
2017-12-21T03:04:01.482Z,88.70
2017-12-21T03:06:27.411Z,88.33
2017-12-21T03:08:55.189Z,88.46
2017-12-21T03:11:21.085Z,89.13
2017-12-21T03:13:50.170Z,88.86
2017-12-21T03:16:16.061Z,88.64
2017-12-21T03:18:45.784Z,88.43
2017-12-21T03:21:11.702Z,88.58
2017-12-21T03:23:40.625Z,88.59
2017-12-21T03:26:06.494Z,88.75
2017-12-21T03:28:35.425Z,88.78
2017-12-21T03:31:01.284Z,88.91
2017-12-21T03:33:27.133Z,88.86
2017-12-21T03:35:52.986Z,88.59
2017-12-21T03:38:18.832Z,88.76
2017-12-21T03:40:45.399Z,88.82
2017-12-21T03:43:11.250Z,88.69
2017-12-21T03:45:40.246Z,88.94
2017-12-21T03:48:06.111Z,88.54
2017-12-21T03:50:35.681Z,88.79
2017-12-21T03:53:01.562Z,88.61
2017-12-21T03:55:30.569Z,88.57
2017-12-21T03:57:56.443Z,88.65
2017-12-21T04:00:25.247Z,88.57
2017-12-21T04:02:51.149Z,87.96
2017-12-21T04:05:19.950Z,88.39
2017-12-21T04:07:45.827Z,88.44
2017-12-21T04:10:11.653Z,88.41
2017-12-21T04:12:37.501Z,88.28
2017-12-21T04:15:03.348Z,88.43
2017-12-21T04:17:30.511Z,88.10
2017-12-21T04:19:56.378Z,88.29
2017-12-21T04:22:25.893Z,88.39
2017-12-21T04:24:51.749Z,88.56
2017-12-21T04:27:19.873Z,88.65
2017-12-21T04:29:45.727Z,88.64
2017-12-21T04:32:14.378Z,88.92
2017-12-21T04:34:40.252Z,88.35
2017-12-21T04:39:37.009Z,88.50
2017-12-21T04:42:04.531Z,88.61
2017-12-21T04:44:30.462Z,88.92
2017-12-21T04:46:56.335Z,88.95
2017-12-21T04:49:22.202Z,88.89
2017-12-21T04:51:48.063Z,88.59
2017-12-21T04:54:16.699Z,88.69
2017-12-21T04:56:42.574Z,88.42
2017-12-21T04:59:11.492Z,88.51
2017-12-21T05:01:37.371Z,87.98
2017-12-21T05:04:06.255Z,88.60
2017-12-21T05:06:32.129Z,88.44
2017-12-21T05:09:00.878Z,88.55
2017-12-21T05:11:26.770Z,88.34
2017-12-21T05:13:59.119Z,88.29
2017-12-21T05:16:24.980Z,88.16
2017-12-21T05:18:50.916Z,88.25
2017-12-21T05:21:16.771Z,88.37
2017-12-21T05:23:42.676Z,88.61
2017-12-21T05:26:08.528Z,88.30
2017-12-21T05:28:34.418Z,88.64
2017-12-21T05:31:01.757Z,88.75
2017-12-21T05:33:27.610Z,89.04
2017-12-21T05:35:56.468Z,88.53
2017-12-21T05:38:22.270Z,88.92
2017-12-21T05:40:52.132Z,89.24
2017-12-21T05:43:18.017Z,89.25
2017-12-21T05:45:46.920Z,88.92
2017-12-21T05:48:12.798Z,89.35
2017-12-21T05:50:41.845Z,89.33
2017-12-21T05:53:07.758Z,89.32
2017-12-21T05:55:35.517Z,89.41
2017-12-21T05:58:01.370Z,89.50
2017-12-21T06:00:27.318Z,89.06
2017-12-21T06:02:53.252Z,88.78
2017-12-21T06:05:19.105Z,88.94
2017-12-21T06:07:46.811Z,89.14
2017-12-21T06:10:12.731Z,89.26
2017-12-21T06:12:41.699Z,89.39
2017-12-21T06:15:07.544Z,89.32
2017-12-21T06:17:36.709Z,89.64
2017-12-21T06:20:02.644Z,89.40
2017-12-21T06:22:32.413Z,89.62
2017-12-21T06:24:58.284Z,89.60
2017-12-21T06:27:26.054Z,89.53
2017-12-21T06:29:51.896Z,89.33
2017-12-21T06:32:21.734Z,89.33
2017-12-21T06:34:47.595Z,89.27
2017-12-21T06:37:13.442Z,89.67
2017-12-21T06:39:39.491Z,89.74
2017-12-21T06:42:05.282Z,89.74
2017-12-21T06:44:32.474Z,89.72
2017-12-21T06:46:58.341Z,89.30
2017-12-21T06:49:27.197Z,89.53
2017-12-21T06:51:53.044Z,89.59
2017-12-21T06:54:22.124Z,89.47
2017-12-21T06:56:47.972Z,89.70
2017-12-21T06:59:16.867Z,89.47
2017-12-21T07:01:42.708Z,89.39
2017-12-21T07:04:12.537Z,89.23
2017-12-21T07:06:38.408Z,89.35
2017-12-21T07:09:07.374Z,89.45
2017-12-21T07:11:33.201Z,89.52
2017-12-21T07:13:59.008Z,89.56
2017-12-21T07:16:24.850Z,89.41
2017-12-21T07:18:50.657Z,89.70
2017-12-21T07:21:17.164Z,89.32
2017-12-21T07:23:43.000Z,89.12
2017-12-21T07:26:12.326Z,89.32
2017-12-21T07:28:38.169Z,89.32
2017-12-21T07:31:08.020Z,89.03
2017-12-21T07:33:33.821Z,88.62
2017-12-21T07:36:01.676Z,88.64
2017-12-21T07:38:27.507Z,88.54
2017-12-21T07:40:57.252Z,88.61
2017-12-21T07:43:23.119Z,88.57
2017-12-21T07:45:51.834Z,88.27
2017-12-21T07:48:17.655Z,88.15
2017-12-21T07:50:43.459Z,88.10
2017-12-21T07:53:09.344Z,87.57
2017-12-21T07:55:35.206Z,87.59
2017-12-21T07:58:02.738Z,87.04
2017-12-21T08:00:28.547Z,86.47
2017-12-21T08:02:57.493Z,87.53
2017-12-21T08:05:23.336Z,87.37
2017-12-21T08:07:53.317Z,86.50
2017-12-21T08:10:19.147Z,86.93
2017-12-21T08:12:48.122Z,87.21
2017-12-21T08:15:13.935Z,87.52
2017-12-21T08:17:43.016Z,87.63
2017-12-21T08:20:08.875Z,87.66
2017-12-21T08:22:36.635Z,87.66
2017-12-21T08:25:02.513Z,87.80
2017-12-21T08:27:28.350Z,88.19
2017-12-21T08:29:54.163Z,88.11
2017-12-21T08:32:20.024Z,88.17
2017-12-21T08:34:47.892Z,88.16
2017-12-21T08:37:13.710Z,87.97
2017-12-21T08:39:43.104Z,87.81
2017-12-21T08:42:08.972Z,88.30
2017-12-21T08:44:38.597Z,88.13
2017-12-21T08:47:04.432Z,88.17
2017-12-21T08:49:32.218Z,88.04
2017-12-21T08:51:58.077Z,88.34
2017-12-21T08:54:27.876Z,88.29
2017-12-21T08:56:53.760Z,88.45
2017-12-21T08:59:21.538Z,88.17
2017-12-21T09:01:47.344Z,88.56
2017-12-21T09:04:13.207Z,88.21
2017-12-21T09:06:39.058Z,88.62
2017-12-21T09:09:04.917Z,88.44
2017-12-21T09:11:33.833Z,88.17
2017-12-21T09:13:59.681Z,88.17
2017-12-21T09:16:29.384Z,87.99
2017-12-21T09:18:55.203Z,87.78
2017-12-21T09:21:23.440Z,88.05
2017-12-21T09:23:49.281Z,88.13
2017-12-21T09:26:17.524Z,88.13
2017-12-21T09:28:43.364Z,88.15
2017-12-21T09:31:12.429Z,88.23
2017-12-21T09:33:38.307Z,88.33
2017-12-21T09:36:08.087Z,88.31
2017-12-21T09:38:33.928Z,88.26
2017-12-21T09:40:59.850Z,88.30
2017-12-21T09:43:25.670Z,88.19
2017-12-21T09:45:51.556Z,87.77
2017-12-21T09:48:19.239Z,87.46
2017-12-21T09:50:45.080Z,87.57
2017-12-21T09:53:13.018Z,86.76
2017-12-21T09:55:38.866Z,86.93
2017-12-21T09:58:07.878Z,86.36
2017-12-21T10:00:33.748Z,85.87
2017-12-21T10:03:03.244Z,86.01
2017-12-21T10:05:29.103Z,85.85
2017-12-21T10:07:58.527Z,85.63
2017-12-21T10:10:24.330Z,85.40
2017-12-21T10:12:52.044Z,85.05
2017-12-21T10:15:17.853Z,84.54
2017-12-21T10:17:43.695Z,84.29
2017-12-21T10:20:09.529Z,84.67
2017-12-21T10:22:35.358Z,85.18
2017-12-21T10:25:04.539Z,85.79
2017-12-21T10:29:54.926Z,85.87
2017-12-21T10:32:20.782Z,85.29
2017-12-21T10:34:46.622Z,85.76
2017-12-21T10:37:12.521Z,86.13
2017-12-21T10:39:38.378Z,85.83
2017-12-21T10:42:04.241Z,86.02
2017-12-21T10:44:33.846Z,86.27
2017-12-21T10:46:59.726Z,86.26
2017-12-21T10:49:25.629Z,86.40
2017-12-21T10:51:51.501Z,86.61
2017-12-21T10:54:17.358Z,86.29
2017-12-21T10:56:44.941Z,86.43
2017-12-21T10:59:10.818Z,86.35
2017-12-21T11:01:40.351Z,86.34
2017-12-21T11:04:06.198Z,86.49
2017-12-21T11:06:35.221Z,86.18
2017-12-21T11:09:01.163Z,86.15
2017-12-21T11:11:30.067Z,86.00
2017-12-21T11:13:55.975Z,86.14
2017-12-21T11:16:23.168Z,86.58
2017-12-21T11:18:49.080Z,86.77
2017-12-21T11:21:17.742Z,86.50
2017-12-21T11:23:43.619Z,86.52
2017-12-21T11:26:09.628Z,86.73
2017-12-21T11:28:35.592Z,85.91
2017-12-21T11:31:02.795Z,85.67
2017-12-21T11:33:29.921Z,86.16
2017-12-21T11:35:55.753Z,86.57
2017-12-21T11:38:25.264Z,86.78
2017-12-21T11:40:51.131Z,87.11
2017-12-21T11:43:20.122Z,87.90
2017-12-21T11:45:45.998Z,88.28
2017-12-21T11:48:15.190Z,88.47
2017-12-21T11:50:41.045Z,88.49
2017-12-21T11:53:19.827Z,88.62
2017-12-21T11:55:46.319Z,88.51
2017-12-21T11:58:12.234Z,88.76
2017-12-21T12:00:38.102Z,88.74
2017-12-21T12:03:03.995Z,88.53
2017-12-21T12:05:29.883Z,88.53
2017-12-21T12:07:55.787Z,88.48
2017-12-21T12:10:21.671Z,88.98
2017-12-21T12:12:47.530Z,89.49
2017-12-21T12:15:19.856Z,89.47
2017-12-21T12:17:45.762Z,89.54
2017-12-21T12:20:11.662Z,89.60
2017-12-21T12:22:37.558Z,90.07
2017-12-21T12:25:03.431Z,89.80
2017-12-21T12:27:29.298Z,89.54
2017-12-21T12:29:55.160Z,89.21
2017-12-21T12:32:21.034Z,88.96
2017-12-21T12:34:49.956Z,89.15
2017-12-21T12:40:22.853Z,88.35
2017-12-21T12:42:48.763Z,88.14
2017-12-21T12:45:14.671Z,88.34
2017-12-21T12:47:40.532Z,88.73
2017-12-21T12:50:06.408Z,88.44
2017-12-21T12:52:32.331Z,88.55
2017-12-21T12:54:58.214Z,88.64
2017-12-21T12:57:24.098Z,88.44
2017-12-21T12:59:50.778Z,88.50
2017-12-21T13:02:25.407Z,89.49
2017-12-21T13:04:51.275Z,89.93
2017-12-21T13:07:17.221Z,90.11
2017-12-21T13:09:43.077Z,90.68
2017-12-21T13:12:08.968Z,91.01
2017-12-21T13:14:34.833Z,91.20
2017-12-21T13:17:00.669Z,91.19
2017-12-21T13:19:26.575Z,90.91
2017-12-21T13:21:52.444Z,90.52
2017-12-21T13:24:25.871Z,90.93
2017-12-21T13:26:51.760Z,91.47
2017-12-21T13:29:17.614Z,91.73
2017-12-21T13:31:43.493Z,91.77
2017-12-21T13:34:09.324Z,92.17
2017-12-21T13:36:35.189Z,92.43
2017-12-21T13:39:01.574Z,92.34
2017-12-21T13:41:27.493Z,92.34
2017-12-21T13:43:53.320Z,92.60
2017-12-21T13:46:41.388Z,92.94
2017-12-21T13:49:07.699Z,92.97
2017-12-21T13:51:33.599Z,92.77
2017-12-21T13:53:59.490Z,92.61
2017-12-21T13:56:25.366Z,92.62
2017-12-21T13:58:51.529Z,92.97
2017-12-21T14:01:17.432Z,92.66
2017-12-21T14:03:43.336Z,92.77
2017-12-21T14:06:09.193Z,92.89
2017-12-21T14:08:36.923Z,92.54
2017-12-21T14:11:02.843Z,92.50
2017-12-21T14:13:28.765Z,92.15
2017-12-21T14:15:54.652Z,91.99
2017-12-21T14:18:20.493Z,92.03
2017-12-21T14:20:46.401Z,91.80
2017-12-21T14:23:12.679Z,91.10
2017-12-21T14:25:38.618Z,90.91
2017-12-21T14:28:19.013Z,90.79
2017-12-21T14:30:44.918Z,90.75
2017-12-21T14:33:10.805Z,90.59
2017-12-21T14:35:36.664Z,90.62
2017-12-21T14:38:02.529Z,91.12
2017-12-21T14:40:28.422Z,91.53
2017-12-21T14:42:54.299Z,91.90
2017-12-21T14:45:20.219Z,92.32
2017-12-21T14:47:46.252Z,92.42
2017-12-21T14:50:22.311Z,92.89
2017-12-21T14:52:48.198Z,93.27
2017-12-21T14:55:14.068Z,93.47
2017-12-21T14:57:39.941Z,93.49
2017-12-21T15:00:05.857Z,93.60
2017-12-21T15:02:31.690Z,93.78
2017-12-21T15:04:57.621Z,93.60
2017-12-21T15:07:23.627Z,93.33
2017-12-21T15:09:49.472Z,92.94
2017-12-21T15:12:24.196Z,92.78
2017-12-21T15:14:50.048Z,92.67
2017-12-21T15:17:15.983Z,92.80
2017-12-21T15:19:41.850Z,92.81
2017-12-21T15:22:07.700Z,92.67
2017-12-21T15:24:33.639Z,92.59
2017-12-21T15:26:59.484Z,92.30
2017-12-21T15:29:25.309Z,92.14
2017-12-21T15:31:51.184Z,92.16
2017-12-21T15:34:17.070Z,92.01
2017-12-21T15:36:42.930Z,91.73
2017-12-21T15:39:09.611Z,91.43
2017-12-21T15:41:35.554Z,91.30
2017-12-21T15:44:01.430Z,91.33
2017-12-21T15:46:27.279Z,91.30
2017-12-21T15:48:53.148Z,91.31
2017-12-21T15:51:19.090Z,91.65
2017-12-21T15:54:00.438Z,91.38
2017-12-21T15:56:26.301Z,90.94
2017-12-21T15:58:52.211Z,91.19
2017-12-21T16:01:18.089Z,91.13
2017-12-21T16:03:43.998Z,90.58
2017-12-21T16:06:09.885Z,90.74
2017-12-21T16:08:35.794Z,90.44
2017-12-21T16:11:01.721Z,90.73
2017-12-21T16:13:27.605Z,90.81
2017-12-21T16:15:53.507Z,91.11
2017-12-21T16:18:19.436Z,91.32
2017-12-21T16:20:45.329Z,91.34
2017-12-21T16:23:11.228Z,91.42
2017-12-21T16:25:37.104Z,91.45
2017-12-21T16:28:02.949Z,91.25
2017-12-21T16:30:28.857Z,90.98
2017-12-21T16:32:54.769Z,90.86
2017-12-21T16:35:22.797Z,90.82
2017-12-21T16:37:48.661Z,91.13
2017-12-21T16:40:14.783Z,90.97
2017-12-21T16:42:40.663Z,90.61
2017-12-21T16:45:06.522Z,90.50
2017-12-21T16:47:32.477Z,90.67
2017-12-21T16:49:58.329Z,91.00
2017-12-21T16:52:24.227Z,91.28
2017-12-21T16:54:50.096Z,91.35
2017-12-21T16:57:16.218Z,91.23
2017-12-21T16:59:42.125Z,91.09
2017-12-21T17:02:08.019Z,90.95
2017-12-21T17:04:33.945Z,90.94
2017-12-21T17:06:59.806Z,90.73
2017-12-21T17:09:25.723Z,90.89
2017-12-21T17:11:51.634Z,91.00
2017-12-21T17:14:17.532Z,91.11
2017-12-21T17:16:43.407Z,91.45
2017-12-21T17:19:12.734Z,91.52
2017-12-21T17:21:38.627Z,91.49
2017-12-21T17:24:04.598Z,91.48
2017-12-21T17:26:30.529Z,91.90
2017-12-21T17:28:56.432Z,92.32
2017-12-21T17:31:22.348Z,92.41
2017-12-21T17:33:48.304Z,92.39
2017-12-21T17:36:14.201Z,92.75
2017-12-21T17:38:40.087Z,92.85
2017-12-21T17:41:12.816Z,92.77
2017-12-21T17:43:40.515Z,92.78
2017-12-21T17:46:06.488Z,92.88
2017-12-21T17:48:32.378Z,93.01
2017-12-21T17:50:58.338Z,92.76
2017-12-21T17:53:24.269Z,92.67
2017-12-21T17:55:50.178Z,92.66
2017-12-21T17:58:16.057Z,92.59
2017-12-21T18:00:42.113Z,92.33
2017-12-21T18:03:08.072Z,92.45
2017-12-21T18:05:37.975Z,92.32
2017-12-21T18:08:03.874Z,92.15
2017-12-21T18:10:29.759Z,91.89
2017-12-21T18:12:55.628Z,92.04
2017-12-21T18:15:21.530Z,92.03
2017-12-21T18:17:48.087Z,91.85
2017-12-21T18:20:14.002Z,91.57
2017-12-21T18:22:42.913Z,91.66
2017-12-21T18:25:08.910Z,91.30
2017-12-21T18:27:38.169Z,91.24
2017-12-21T18:30:04.177Z,90.97
2017-12-21T18:32:33.213Z,90.86
2017-12-21T18:34:59.133Z,91.04
2017-12-21T18:37:28.568Z,90.64
2017-12-21T18:39:54.491Z,90.04
2017-12-21T18:42:22.217Z,89.73
2017-12-21T18:44:48.077Z,89.62
2017-12-21T18:47:14.408Z,90.08
2017-12-21T18:49:40.372Z,90.31
2017-12-21T18:52:06.238Z,90.11
2017-12-21T18:54:35.294Z,90.34
2017-12-21T18:57:01.193Z,90.04
2017-12-21T18:59:28.133Z,89.79
2017-12-21T19:01:54.054Z,89.67
2017-12-21T19:04:22.858Z,89.71
2017-12-21T19:06:48.786Z,89.57
2017-12-21T19:09:18.226Z,89.24
2017-12-21T19:11:44.140Z,89.40
2017-12-21T19:14:13.157Z,89.62
2017-12-21T19:16:39.127Z,89.47
2017-12-21T19:19:08.368Z,89.39
2017-12-21T19:21:34.283Z,89.53
2017-12-21T19:24:01.902Z,89.20
2017-12-21T19:26:27.937Z,89.36
2017-12-21T19:28:53.851Z,89.14
2017-12-21T19:31:19.711Z,89.40
2017-12-21T19:33:45.565Z,89.11
2017-12-21T19:36:13.183Z,89.37
2017-12-21T19:38:39.109Z,89.37
2017-12-21T19:41:07.840Z,89.63
2017-12-21T19:43:33.721Z,89.69
2017-12-21T19:46:04.487Z,90.03
2017-12-21T19:48:30.394Z,90.17
2017-12-21T19:50:59.453Z,90.40
2017-12-21T19:53:25.382Z,90.40
2017-12-21T19:55:52.403Z,90.28
2017-12-21T19:58:18.296Z,90.27
2017-12-21T20:00:44.206Z,90.42
2017-12-21T20:03:10.114Z,90.42
2017-12-21T20:05:35.993Z,90.31
2017-12-21T20:08:05.561Z,89.98
2017-12-21T20:10:31.442Z,89.72
2017-12-21T20:13:00.524Z,89.71
2017-12-21T20:15:26.399Z,89.74
2017-12-21T20:17:53.467Z,89.98
2017-12-21T20:20:19.491Z,90.11
2017-12-21T20:22:49.221Z,90.04
2017-12-21T20:25:15.729Z,89.96
2017-12-21T20:27:42.878Z,90.18
2017-12-21T20:30:08.742Z,90.02
2017-12-21T20:32:37.837Z,89.87
2017-12-21T20:35:03.732Z,89.99
2017-12-21T20:37:29.611Z,90.03
2017-12-21T20:39:55.541Z,89.99
2017-12-21T20:42:21.420Z,89.79
2017-12-21T20:44:51.354Z,89.42
2017-12-21T20:47:18.083Z,89.51
2017-12-21T20:49:50.355Z,89.20
2017-12-21T20:52:16.262Z,88.99
2017-12-21T20:54:42.172Z,89.09
2017-12-21T20:57:08.159Z,89.19
2017-12-21T20:59:34.074Z,89.24
2017-12-21T21:01:59.995Z,89.17
2017-12-21T21:04:28.340Z,89.31
2017-12-21T21:06:54.295Z,89.17
2017-12-21T21:09:24.368Z,89.04
2017-12-21T21:11:56.899Z,88.95
2017-12-21T21:14:22.743Z,88.90
2017-12-21T21:16:48.763Z,88.90
2017-12-21T21:19:14.650Z,88.93
2017-12-21T21:21:40.580Z,88.83
2017-12-21T21:24:06.466Z,88.89
2017-12-21T21:26:32.354Z,88.88
2017-12-21T21:28:58.264Z,89.25
2017-12-21T21:31:24.188Z,89.35
2017-12-21T21:33:58.372Z,89.58
2017-12-21T21:36:24.226Z,89.66
2017-12-21T21:38:50.310Z,89.77
2017-12-21T21:41:16.306Z,89.76
2017-12-21T21:43:42.178Z,89.62
2017-12-21T21:46:08.381Z,89.61
2017-12-21T21:48:34.263Z,89.90
2017-12-21T21:51:00.184Z,89.85
2017-12-21T21:53:26.102Z,89.68
2017-12-21T21:55:51.975Z,89.49
2017-12-21T21:58:21.487Z,89.30
2017-12-21T22:00:47.440Z,89.08
2017-12-21T22:03:16.611Z,88.74
2017-12-21T22:05:42.527Z,88.78
2017-12-21T22:08:09.417Z,88.92
2017-12-21T22:10:35.334Z,89.02
2017-12-21T22:13:04.293Z,88.97
2017-12-21T22:15:33.418Z,88.96
2017-12-21T22:17:59.420Z,88.87
2017-12-21T22:20:25.376Z,88.66
2017-12-21T22:22:53.731Z,88.85
2017-12-21T22:25:19.577Z,88.78
2017-12-21T22:27:45.458Z,88.26
2017-12-21T22:30:11.315Z,88.01
2017-12-21T22:32:37.164Z,87.76
2017-12-21T22:35:06.719Z,88.06
2017-12-21T22:37:36.449Z,87.90
2017-12-21T22:40:02.335Z,88.27
2017-12-21T22:42:28.236Z,88.23
2017-12-21T22:44:54.985Z,88.13
2017-12-21T22:47:21.333Z,88.24
2017-12-21T22:49:50.263Z,88.44
2017-12-21T22:52:16.167Z,88.88
2017-12-21T22:54:45.630Z,89.05
2017-12-21T22:57:11.544Z,89.11
2017-12-21T22:59:40.568Z,88.96
2017-12-21T23:02:06.477Z,89.11
2017-12-21T23:04:32.366Z,89.21
2017-12-21T23:06:58.278Z,89.44
2017-12-21T23:09:24.201Z,89.27
2017-12-21T23:11:51.298Z,89.22
2017-12-21T23:14:17.179Z,89.19
2017-12-21T23:16:46.690Z,89.36
2017-12-21T23:19:16.271Z,89.37
2017-12-21T23:21:42.231Z,89.46
2017-12-21T23:24:08.080Z,89.25
2017-12-21T23:26:34.861Z,89.28
2017-12-21T23:29:00.764Z,89.28
2017-12-21T23:31:30.207Z,89.62
2017-12-21T23:33:56.256Z,89.76
2017-12-21T23:36:26.003Z,90.01
2017-12-21T23:38:51.841Z,89.87
2017-12-21T23:41:17.833Z,89.70
2017-12-21T23:43:43.720Z,89.39
2017-12-21T23:46:09.643Z,89.52
2017-12-21T23:48:36.461Z,89.58
2017-12-21T23:51:02.391Z,89.51
2017-12-21T23:53:32.257Z,89.59
2017-12-21T23:55:58.183Z,89.93
2017-12-21T23:58:27.228Z,90.33
